createdAt,value
2018-05-02T00:05:30.109Z,45.00
2018-05-02T00:15:33.440Z,44.90
2018-05-02T00:25:36.658Z,45.10
2018-05-02T00:35:39.829Z,45.20
2018-05-02T00:45:43.047Z,45.30
2018-05-02T00:55:46.237Z,45.30
2018-05-02T01:05:49.410Z,45.40
2018-05-02T01:15:53.347Z,45.50
2018-05-02T01:25:56.517Z,45.40
2018-05-02T01:36:00.499Z,45.50
2018-05-02T01:46:03.682Z,45.50
2018-05-02T01:56:07.609Z,45.70
2018-05-02T02:06:10.824Z,45.60
2018-05-02T02:16:14.779Z,46.10
2018-05-02T02:26:18.742Z,45.60
2018-05-02T02:36:22.699Z,45.80
2018-05-02T02:46:26.675Z,45.80
2018-05-02T02:56:29.862Z,45.70
2018-05-02T03:06:33.084Z,45.60
2018-05-02T03:16:36.261Z,45.80
2018-05-02T03:26:39.435Z,45.90
2018-05-02T03:36:42.630Z,45.90
2018-05-02T03:46:45.842Z,45.90
2018-05-02T03:56:49.017Z,45.90
2018-05-02T04:17:29.243Z,45.80
2018-05-02T04:27:33.221Z,45.80
2018-05-02T04:37:36.480Z,45.70
2018-05-02T04:47:39.683Z,45.80
2018-05-02T04:57:43.662Z,45.70
2018-05-02T05:07:46.906Z,45.70
2018-05-02T05:17:50.104Z,45.70
2018-05-02T05:27:53.286Z,45.70
2018-05-02T05:37:56.488Z,45.60
2018-05-02T05:48:00.430Z,45.70
2018-05-02T05:58:03.694Z,46.30
2018-05-02T06:08:06.868Z,45.60
2018-05-02T06:18:10.842Z,45.70
2018-05-02T06:28:14.044Z,45.60
2018-05-02T06:38:17.237Z,45.90
2018-05-02T06:48:20.419Z,43.50
2018-05-02T06:58:23.625Z,42.10
2018-05-02T07:08:26.800Z,41.50
2018-05-02T07:18:31.039Z,42.20
2018-05-02T07:28:34.218Z,40.50
2018-05-02T07:38:37.417Z,39.90
2018-05-02T07:48:40.691Z,40.00
2018-05-02T07:58:44.667Z,39.80
2018-05-02T08:08:47.845Z,39.80
2018-05-02T08:18:51.095Z,40.30
2018-05-02T08:28:54.296Z,40.70
2018-05-02T08:38:57.523Z,40.90
2018-05-02T08:49:01.297Z,41.20
2018-05-02T08:59:04.513Z,41.60
2018-05-02T09:09:07.783Z,41.80
2018-05-02T09:19:10.974Z,41.90
2018-05-02T09:29:14.148Z,42.10
2018-05-02T09:39:17.496Z,42.20
2018-05-02T09:49:20.757Z,42.30
2018-05-02T09:59:23.941Z,42.10
2018-05-02T10:09:28.402Z,41.90
2018-05-02T10:19:32.437Z,44.40
2018-05-02T10:29:35.678Z,44.30
2018-05-02T10:39:38.853Z,43.70
2018-05-02T10:49:42.883Z,44.10
2018-05-02T10:59:46.066Z,44.10
2018-05-02T11:09:49.268Z,44.30
2018-05-02T11:19:52.511Z,44.40
2018-05-02T11:29:56.013Z,44.70
2018-05-02T11:39:59.307Z,44.70
2018-05-02T11:50:02.492Z,44.80
2018-05-02T12:00:05.705Z,44.80
2018-05-02T12:10:09.753Z,45.10
2018-05-02T12:20:12.965Z,44.70
2018-05-02T12:30:16.158Z,44.70
2018-05-02T12:40:20.130Z,44.70
2018-05-02T12:50:24.122Z,44.70
2018-05-02T13:00:27.307Z,44.60
2018-05-02T13:10:30.520Z,44.90
2018-05-02T13:20:33.709Z,44.90
2018-05-02T13:30:37.684Z,44.90
2018-05-02T13:40:41.714Z,44.90
2018-05-02T13:50:44.917Z,44.80
2018-05-02T14:00:48.143Z,44.90
2018-05-02T14:10:51.312Z,44.90
2018-05-02T14:20:54.586Z,45.00
2018-05-02T14:30:57.777Z,45.00
2018-05-02T14:41:00.958Z,44.80
2018-05-02T14:51:04.144Z,44.80
2018-05-02T15:01:09.040Z,44.90
2018-05-02T15:11:12.245Z,44.80
2018-05-02T15:21:16.958Z,44.80
2018-05-02T15:31:20.137Z,44.80
2018-05-02T15:41:23.349Z,44.80
2018-05-02T15:51:26.523Z,44.70
2018-05-02T16:01:29.889Z,44.80
2018-05-02T16:11:33.080Z,44.80
2018-05-02T16:21:36.289Z,44.70
2018-05-02T16:31:40.231Z,44.80
2018-05-02T16:41:43.424Z,44.70
2018-05-02T16:51:46.622Z,44.60
2018-05-02T17:01:49.791Z,44.60
2018-05-02T17:11:53.887Z,44.70
2018-05-02T17:21:57.125Z,44.70
2018-05-02T17:32:00.485Z,44.70
2018-05-02T17:42:03.663Z,44.80
2018-05-02T17:52:06.851Z,44.90
2018-05-02T18:02:10.018Z,44.80
2018-05-02T18:12:13.288Z,44.80
2018-05-02T18:22:16.532Z,44.90
2018-05-02T18:32:19.715Z,44.90
2018-05-02T18:42:22.917Z,44.80
2018-05-02T18:52:26.110Z,44.80
2018-05-02T19:02:29.286Z,44.90
2018-05-02T19:12:32.959Z,44.90
2018-05-02T19:22:36.145Z,45.00
2018-05-02T19:32:45.179Z,45.00
2018-05-02T19:42:53.956Z,44.90
2018-05-02T19:52:57.143Z,44.80
2018-05-02T20:03:01.103Z,44.80
2018-05-02T20:13:09.736Z,44.90
2018-05-02T20:23:12.971Z,44.70
2018-05-02T20:33:16.151Z,44.70
2018-05-02T20:43:19.331Z,44.80
2018-05-02T20:53:22.598Z,44.70
2018-05-02T21:03:25.841Z,44.60
2018-05-02T21:13:29.025Z,44.60
2018-05-02T21:23:32.193Z,44.60
2018-05-02T21:33:35.473Z,44.60
2018-05-02T21:43:39.415Z,44.60
2018-05-02T21:53:42.719Z,44.60
2018-05-02T22:03:45.918Z,44.60
2018-05-02T22:13:49.096Z,44.50
2018-05-02T22:23:53.005Z,44.50
2018-05-02T22:33:56.216Z,44.50
2018-05-02T22:43:59.395Z,44.60
2018-05-02T22:54:02.592Z,44.40
2018-05-02T23:04:05.894Z,44.40
2018-05-02T23:14:09.864Z,45.20
2018-05-02T23:24:13.841Z,44.80
2018-05-02T23:34:17.828Z,44.70
2018-05-02T23:44:40.146Z,44.70
2018-05-02T23:54:43.414Z,44.60
